x

Albatross Bank - 104nm South Of Kodiak, Ak (46078) Wave Buoy

8:50pm - Tue 2nd Sep 2014 All times are AKDT. -8 hours from GMT.

  • Sig Wave height 3.9ft
  • Swell Direction
  • Peak Period 14s
  • Average Period 5s
  • Wind
    13mph, 16mph gusts
  • Sea Temp 57°f
  • Air Temp 56°f
  • Sea Pressure 1019.6mb
  • Albatross Bank - 104nm South Of Kodiak, Ak
  • Albatross Bank - 104nm South Of Kodiak, Ak

More Historic Weather Station data

Upgrade to MSW Pro to gain access to the past 30 days of data for over 8000 Wavebouys and Weather Stations around the globe.

Join Pro

Comparision Forecast

View Surf forecast
   
Tue 09/02 8:50pm 4ft 14s 5s 13 16 mph 1019.6mb 57f 56f
7:50pm 4.5ft 15s 6s 18 20 mph 1019.8mb 57f 56f
6:50pm 4.5ft 14s 6s 18 22 mph 1020.1mb 57f 56f
5:50pm 4.5ft 6s 5s 18 22 mph 1020.5mb 57f 56f
4:50pm 4.5ft 14s 5s 20 25 mph 1020.7mb 57f 56f
3:50pm 5ft 15s 6s 20 22 mph 1021.3mb 57f 55f
1:50pm 4.5ft 15s 6s 18 22 mph 1021.7mb 57f 55f
12:50pm 5ft 15s 6s 20 22 mph 1021.6mb 57f 55f
11:50am 5ft 6s 5s 20 25 mph 1021.5mb 57f 55f
10:50am 5ft 6s 5s 20 22 mph 1021.4mb 57f 55f
9:50am 5ft 11s 5s 20 25 mph 1021.4mb 57f 55f
8:50am 5ft 6s 5s 22 25 mph 1021.4mb 57f 55f
7:50am 5.5ft 6s 6s 22 27 mph 1021.2mb 57f 55f
6:50am 6ft 6s 6s 20 25 mph 1021.2mb 57f 55f
5:50am 6ft 6s 6s 22 27 mph 1021.4mb 57f 55f
4:50am 6ft 6s 6s 22 25 mph 1021.6mb 57f 55f
3:50am 6ft 6s 6s 22 27 mph 1021.6mb 57f 55f
2:50am 6ft 6s 6s 25 29 mph 1021.6mb 57f 55f
1:50am 5.5ft 6s 6s 22 29 mph 1021.8mb 57f 55f
12:50am 6ft 6s 6s 22 27 mph 1021.6mb 57f 55f
Mon 09/01 11:50pm 5.5ft 6s 5s 25 27 mph 1021.5mb 57f 55f
10:50pm 6ft 6s 6s 22 27 mph 1021.6mb 57f 55f
9:50pm 6ft 6s 6s 22 27 mph 1021.2mb 57f 55f
8:50pm 6ft 6s 6s 22 29 mph 1020.7mb 57f 55f
7:50pm 5.5ft 12s 6s 25 29 mph 1020.6mb 57f 55f
6:50pm 5.5ft 6s 6s 22 27 mph 1020.5mb 57f 55f
5:50pm 5.5ft 5s 6s 22 27 mph 1020.6mb 57f 55f
4:50pm 6ft 12s 6s 22 25 mph 1020.4mb 57f 56f
3:50pm 6ft 8s 6s 20 25 mph 1020.5mb 57f 56f
2:50pm 6ft 6s 6s 25 29 mph 1020.2mb 57f 56f
1:50pm 6ft 6s 6s 18 22 mph 1020mb 57f 56f
12:50pm 6.5ft 12s 6s 22 25 mph 1019.4mb 57f 55f
11:50am 6ft 6s 6s 20 25 mph 1019.1mb 57f 55f
10:50am 7ft 6s 6s 22 31 mph 1018.3mb 57f 55f
9:50am 6.5ft 6s 6s 25 31 mph 1017.7mb 57f 55f
8:50am 6ft 14s 6s 25 29 mph 1017.1mb 57f 55f
7:50am 7ft 8s 6s 22 29 mph 1016.6mb 57f 55f
6:50am 6.5ft 8s 6s 20 25 mph 1016.3mb 57f 55f
5:50am 6.5ft 8s 6s 22 27 mph 1015.9mb 57f 55f
4:50am 7ft 8s 6s 25 29 mph 1015mb 57f 55f
3:50am 7ft 8s 6s 25 29 mph 1014.4mb 57f 55f
2:50am 6.5ft 9s 6s 22 29 mph 1014mb 57f 55f
1:50am 7ft 8s 6s 25 31 mph 1013.3mb 57f 55f
12:50am 7ft 13s 6s 22 27 mph 1012.8mb 57f 56f
Sun 08/31 11:50pm 7ft 8s 6s 22 27 mph 1012.2mb 57f 56f
10:50pm 7ft 8s 6s 22 27 mph 1011.8mb 57f 56f
9:50pm 7ft 8s 6s 22 27 mph 1011.1mb 57f 56f
8:50pm 7ft 9s 6s 20 25 mph 1010.8mb 57f 55f
7:50pm 8ft 9s 6s 22 27 mph 1010.6mb 57f 55f
6:50pm 7.5ft 9s 7s 25 31 mph 1010.3mb 57f 55f
5:50pm 8ft 8s 7s 22 27 mph 1010mb 57f 55f
4:50pm 7.5ft 14s 7s 25 29 mph 1009.9mb 57f 55f
3:50pm 7ft 9s 6s 22 27 mph 1009.7mb 57f 55f
2:50pm 7ft 14s 6s 22 29 mph 1009.4mb 57f 55f
1:50pm 6.5ft 8s 6s 22 27 mph 1008.9mb 57f 55f
12:50pm 6.5ft 14s 6s 20 22 mph 1008.8mb 57f 55f
11:50am 6ft 14s 6s 20 25 mph 1008.3mb 57f 55f
10:50am 5.5ft 14s 6s 18 22 mph 1007.9mb 56f 55f
9:50am 5.5ft 14s 6s 16 20 mph 1007.4mb 56f 55f
8:50am 5ft 14s 6s 18 22 mph 1006.9mb 56f 55f
7:50am 5ft 15s 6s 16 18 mph 1006.3mb 56f 55f
6:50am 5ft 14s 7s 16 20 mph 1005.8mb 56f 55f
5:50am 5.5ft 14s 7s 16 20 mph 1005.4mb 56f 55f
4:50am 5ft 15s 8s 16 18 mph 1004.8mb 57f 55f
3:50am 5ft 14s 8s 16 18 mph 1004.6mb 57f 55f
2:50am 5ft 15s 8s 11 13 mph 1004.2mb 57f 55f
1:50am 4ft 14s 8s 11
mph
1003.6mb 57f 55f
12:50am 4ft 15s 8s 11 13 mph 1003.5mb 57f 55f
Sat 08/30 11:50pm 4ft 15s 9s 9 11 mph 1002.7mb 57f 55f
10:50pm 4ft 14s 8s 7
mph
1002.1mb 57f 55f
9:50pm 4.5ft 15s 9s 7
mph
1001.3mb 57f 54f
8:50pm 4ft 15s 8s 7 9 mph 1000.7mb 57f 54f
7:50pm 4ft 15s 8s 7 9 mph 1000.4mb 57f 54f
6:50pm 4.5ft 15s 9s 2
mph
1000.2mb 57f 54f
5:50pm 4.5ft 15s 9s  -  2 mph 1000.4mb 57f 54f
4:50pm 4.5ft 16s 8s 4
mph
1000.5mb 57f 54f
3:50pm 4.5ft 15s 8s 2 4 mph 1000.9mb 57f 54f
1:50pm 4.5ft 15s 8s 7
mph
1001.5mb 57f 55f
12:50pm 4.5ft 16s 8s 7 9 mph 1001.6mb 57f 55f
11:50am 4.5ft 15s 8s 4 7 mph 1002mb 57f 55f
10:50am 4.5ft 15s 7s 7
mph
1002.4mb 57f 55f
9:50am 4.5ft 16s 7s 7 9 mph 1003mb 57f 55f
8:50am 4ft 16s 7s 9 11 mph 1003mb 57f 55f
7:50am 4.5ft 16s 7s 9 11 mph 1003.4mb 57f 55f
6:50am 4.5ft 17s 7s 9 11 mph 1003.8mb 57f 55f